createdAt,value
2019-04-06T00:00:39.515Z,99.90
2019-04-06T00:02:37.676Z,99.90
2019-04-06T00:04:32.140Z,99.90
2019-04-06T00:06:26.851Z,99.90
2019-04-06T00:08:21.306Z,99.90
2019-04-06T00:10:17.527Z,99.90
2019-04-06T00:12:12.187Z,99.90
2019-04-06T00:14:06.393Z,99.90
2019-04-06T00:16:03.374Z,99.90
2019-04-06T00:17:58.027Z,99.90
2019-04-06T00:19:52.962Z,99.90
2019-04-06T00:21:47.901Z,99.90
2019-04-06T00:23:42.855Z,99.90
2019-04-06T00:25:44.186Z,99.90
2019-04-06T00:27:35.691Z,99.90
2019-04-06T00:29:30.126Z,99.90
2019-04-06T00:31:39.526Z,99.90
2019-04-06T00:33:34.222Z,99.90
2019-04-06T00:35:28.978Z,99.90
2019-04-06T00:37:23.914Z,99.90
2019-04-06T00:39:18.906Z,99.90
2019-04-06T00:41:13.768Z,99.90
2019-04-06T00:43:08.800Z,99.90
2019-04-06T00:45:12.543Z,99.90
2019-04-06T00:47:06.867Z,99.90
2019-04-06T00:49:02.012Z,99.90
2019-04-06T00:50:56.816Z,99.90
2019-04-06T00:52:50.990Z,99.90
2019-04-06T00:54:45.455Z,99.90
2019-04-06T00:56:40.229Z,99.90
2019-04-06T00:58:36.372Z,99.90
2019-04-06T01:00:31.227Z,99.90
2019-04-06T01:02:26.064Z,99.90
2019-04-06T01:04:20.345Z,99.90
2019-04-06T01:06:14.478Z,99.90
2019-04-06T01:08:09.400Z,99.90
2019-04-06T01:10:04.643Z,99.90
2019-04-06T01:11:58.805Z,99.90
2019-04-06T01:13:55.664Z,99.90
2019-04-06T01:15:49.762Z,99.90
2019-04-06T01:17:44.394Z,99.90
2019-04-06T01:19:39.275Z,99.90
2019-04-06T01:21:33.535Z,99.90
2019-04-06T01:23:27.608Z,99.90
2019-04-06T01:25:22.649Z,99.90
2019-04-06T01:27:16.570Z,99.90
2019-04-06T01:29:10.478Z,99.90
2019-04-06T01:31:05.579Z,99.90
2019-04-06T01:33:00.411Z,99.90
2019-04-06T01:34:55.005Z,99.90
2019-04-06T01:36:49.925Z,99.90
2019-04-06T01:38:43.746Z,99.90
2019-04-06T01:40:38.222Z,99.90
2019-04-06T01:42:32.113Z,99.90
2019-04-06T01:44:26.820Z,99.90
2019-04-06T01:46:21.055Z,99.90
2019-04-06T01:48:15.267Z,99.90
2019-04-06T01:50:10.722Z,99.90
2019-04-06T01:52:05.268Z,99.90
2019-04-06T01:54:00.023Z,99.90
2019-04-06T01:55:54.118Z,99.90
2019-04-06T01:57:48.718Z,99.90
2019-04-06T01:59:42.923Z,99.90
2019-04-06T02:01:59.516Z,99.90
2019-04-06T02:03:53.599Z,99.90
2019-04-06T02:05:47.941Z,99.90
2019-04-06T02:07:42.739Z,99.90
2019-04-06T02:09:37.534Z,99.90
2019-04-06T02:11:32.149Z,99.90
2019-04-06T02:13:26.117Z,99.90
2019-04-06T02:15:20.854Z,99.90
2019-04-06T02:17:15.825Z,99.90
2019-04-06T02:19:09.638Z,99.90
2019-04-06T02:21:03.846Z,99.90
2019-04-06T02:22:59.452Z,99.90
2019-04-06T02:24:53.344Z,99.90
2019-04-06T02:26:47.331Z,99.90
2019-04-06T02:28:41.956Z,99.90
2019-04-06T02:30:40.255Z,99.90
2019-04-06T02:32:40.823Z,99.90
2019-04-06T02:34:53.398Z,99.90
2019-04-06T02:37:03.774Z,99.90
2019-04-06T02:39:07.483Z,99.90
2019-04-06T02:41:06.887Z,99.90
2019-04-06T02:43:19.766Z,99.90
2019-04-06T02:45:15.055Z,99.90
2019-04-06T02:47:09.004Z,99.90
2019-04-06T02:49:03.030Z,99.90
2019-04-06T02:50:57.464Z,99.90
2019-04-06T02:52:52.534Z,99.90
2019-04-06T02:54:47.206Z,99.90
2019-04-06T02:56:46.299Z,99.90
2019-04-06T02:58:37.943Z,99.90
2019-04-06T03:00:32.166Z,99.90
2019-04-06T03:02:27.262Z,99.90
2019-04-06T03:04:21.212Z,99.90
2019-04-06T03:06:16.145Z,99.90
2019-04-06T03:08:10.803Z,99.90
2019-04-06T03:10:05.397Z,99.90
2019-04-06T03:12:00.058Z,99.90
2019-04-06T03:13:55.045Z,99.90
2019-04-06T03:15:49.779Z,99.90
2019-04-06T03:17:44.726Z,99.90
2019-04-06T03:19:39.768Z,99.90
2019-04-06T03:21:34.451Z,99.90
2019-04-06T03:23:28.771Z,99.90
2019-04-06T03:25:23.510Z,99.90
2019-04-06T03:27:18.329Z,99.90
2019-04-06T03:29:13.348Z,99.90
2019-04-06T03:31:07.205Z,99.90
2019-04-06T03:33:01.916Z,99.90
2019-04-06T03:34:56.590Z,99.90
2019-04-06T03:36:51.614Z,99.90
2019-04-06T03:38:46.601Z,99.90
2019-04-06T03:40:41.343Z,99.90
2019-04-06T03:42:36.016Z,99.90
2019-04-06T03:44:30.776Z,99.90
2019-04-06T03:46:24.680Z,99.90
2019-04-06T03:48:19.515Z,99.90
2019-04-06T03:50:14.285Z,99.90
2019-04-06T03:52:09.602Z,99.90
2019-04-06T03:54:04.316Z,99.90
2019-04-06T03:55:59.035Z,99.90
2019-04-06T03:57:53.862Z,99.90
2019-04-06T03:59:48.620Z,99.90
2019-04-06T04:01:43.715Z,99.90
2019-04-06T04:03:38.483Z,99.90
2019-04-06T04:05:33.073Z,99.90
2019-04-06T04:07:27.691Z,99.90
2019-04-06T04:09:22.502Z,99.90
2019-04-06T04:11:17.460Z,99.90
2019-04-06T04:13:12.149Z,99.90
2019-04-06T04:15:07.173Z,99.90
2019-04-06T04:17:02.051Z,99.90
2019-04-06T04:18:56.380Z,99.90
2019-04-06T04:20:50.662Z,99.90
2019-04-06T04:22:46.597Z,99.90
2019-04-06T04:24:41.520Z,99.90
2019-04-06T04:26:37.452Z,99.90
2019-04-06T04:28:32.441Z,99.90
2019-04-06T04:30:34.663Z,99.90
2019-04-06T04:32:29.119Z,99.90
2019-04-06T04:34:23.270Z,99.90
2019-04-06T04:36:17.932Z,99.90
2019-04-06T04:38:12.892Z,99.90
2019-04-06T04:40:07.138Z,99.90
2019-04-06T04:42:01.739Z,99.90
2019-04-06T04:43:56.347Z,99.90
2019-04-06T04:45:51.161Z,99.90
2019-04-06T04:47:45.242Z,99.90
2019-04-06T04:49:39.575Z,99.90
2019-04-06T04:51:34.618Z,99.90
2019-04-06T04:53:29.036Z,99.90
2019-04-06T04:55:24.079Z,99.90
2019-04-06T04:57:26.416Z,99.90
2019-04-06T04:59:20.519Z,99.90
2019-04-06T05:01:14.548Z,99.90
2019-04-06T05:03:09.424Z,99.90
2019-04-06T05:05:05.152Z,99.90
2019-04-06T05:07:00.086Z,99.90
2019-04-06T05:08:54.864Z,99.90
2019-04-06T05:10:49.472Z,99.90
2019-04-06T05:12:44.096Z,99.90
2019-04-06T05:15:14.065Z,99.90
2019-04-06T05:17:08.126Z,99.90
2019-04-06T05:19:02.516Z,99.90
2019-04-06T05:20:57.307Z,99.90
2019-04-06T05:22:51.522Z,99.90
2019-04-06T05:24:46.229Z,99.90
2019-04-06T05:26:40.802Z,99.90
2019-04-06T05:28:35.515Z,99.90
2019-04-06T05:30:29.951Z,99.90
2019-04-06T05:32:24.602Z,99.90
2019-04-06T05:34:18.503Z,99.90
2019-04-06T05:36:13.258Z,99.90
2019-04-06T05:38:07.311Z,99.90
2019-04-06T05:40:01.709Z,99.90
2019-04-06T05:41:56.020Z,99.90
2019-04-06T05:43:50.435Z,99.90
2019-04-06T05:45:44.858Z,99.90
2019-04-06T05:47:39.117Z,99.90
2019-04-06T05:49:33.691Z,99.90
2019-04-06T05:51:28.393Z,99.90
2019-04-06T05:53:23.422Z,99.90
2019-04-06T05:55:17.984Z,99.90
2019-04-06T05:57:13.053Z,99.90
2019-04-06T05:59:10.266Z,99.90
2019-04-06T06:01:05.708Z,99.90
2019-04-06T06:03:00.752Z,99.90
2019-04-06T06:04:55.324Z,99.90
2019-04-06T06:06:50.164Z,99.90
2019-04-06T06:08:45.009Z,99.90
2019-04-06T06:10:39.813Z,99.90
2019-04-06T06:12:33.975Z,99.90
2019-04-06T06:14:28.210Z,99.90
2019-04-06T06:16:22.996Z,99.90
2019-04-06T06:18:26.449Z,99.90
2019-04-06T06:20:13.880Z,99.90
2019-04-06T06:22:09.056Z,99.90
2019-04-06T06:24:03.096Z,99.90
2019-04-06T06:25:57.099Z,99.90
2019-04-06T06:27:51.230Z,99.90
2019-04-06T06:29:45.710Z,99.90
2019-04-06T06:31:40.745Z,99.90
2019-04-06T06:33:35.604Z,99.90
2019-04-06T06:35:30.265Z,99.90
2019-04-06T06:37:24.379Z,99.90
2019-04-06T06:39:18.547Z,99.90
2019-04-06T06:41:13.148Z,99.90
2019-04-06T06:43:07.025Z,99.90
2019-04-06T06:45:01.589Z,99.90
2019-04-06T06:46:56.531Z,99.90
2019-04-06T06:48:59.518Z,99.90
2019-04-06T06:50:54.379Z,99.90
2019-04-06T06:52:49.137Z,99.90
2019-04-06T06:54:43.530Z,99.90
2019-04-06T06:56:38.193Z,99.90
2019-04-06T06:58:37.697Z,99.90
2019-04-06T07:00:32.874Z,99.90
2019-04-06T07:02:28.550Z,99.90
2019-04-06T07:04:24.071Z,99.90
2019-04-06T07:06:17.908Z,99.90
2019-04-06T07:08:12.727Z,99.90
2019-04-06T07:10:07.926Z,99.90
2019-04-06T07:12:03.104Z,99.90
2019-04-06T07:13:57.430Z,99.90
2019-04-06T07:15:52.434Z,99.90
2019-04-06T07:17:46.931Z,99.90
2019-04-06T07:19:41.569Z,99.90
2019-04-06T07:21:36.749Z,99.90
2019-04-06T07:23:31.857Z,99.90
2019-04-06T07:25:26.689Z,99.90
2019-04-06T07:27:20.707Z,99.90
2019-04-06T07:29:15.131Z,99.90
2019-04-06T07:31:10.060Z,99.90
2019-04-06T07:33:04.748Z,99.90
2019-04-06T07:34:59.430Z,99.90
2019-04-06T07:36:54.435Z,99.90
2019-04-06T07:38:49.448Z,99.90
2019-04-06T07:40:43.729Z,99.90
2019-04-06T07:42:38.583Z,99.90
2019-04-06T07:44:33.376Z,99.90
2019-04-06T07:46:28.239Z,99.90
2019-04-06T07:48:22.825Z,99.90
2019-04-06T07:50:17.064Z,99.90
2019-04-06T07:52:11.486Z,99.90
2019-04-06T07:54:06.491Z,99.90
2019-04-06T07:56:00.447Z,99.90
2019-04-06T07:57:55.261Z,99.90
2019-04-06T07:59:50.538Z,99.90
2019-04-06T08:01:45.375Z,99.90
2019-04-06T08:03:40.197Z,99.90
2019-04-06T08:05:36.322Z,99.90
2019-04-06T08:07:31.341Z,99.90
2019-04-06T08:09:25.951Z,99.90
2019-04-06T08:11:19.865Z,99.90
2019-04-06T08:13:13.929Z,99.90
2019-04-06T08:15:08.931Z,99.90
2019-04-06T08:17:03.087Z,99.90
2019-04-06T08:18:58.098Z,99.90
2019-04-06T08:20:51.927Z,99.90
2019-04-06T08:22:46.651Z,99.90
2019-04-06T08:24:41.895Z,99.90
2019-04-06T08:26:36.987Z,99.90
2019-04-06T08:28:32.850Z,99.90
2019-04-06T08:30:27.789Z,99.90
2019-04-06T08:32:22.130Z,99.90
2019-04-06T08:34:16.806Z,99.90
2019-04-06T08:36:11.636Z,99.90
2019-04-06T08:38:07.052Z,99.90
2019-04-06T08:40:00.959Z,99.90
2019-04-06T08:41:55.417Z,99.90
2019-04-06T08:43:50.512Z,99.90
2019-04-06T08:45:45.285Z,99.90
2019-04-06T08:47:40.017Z,99.90
2019-04-06T08:49:34.998Z,99.90
2019-04-06T08:51:29.326Z,99.90
2019-04-06T08:53:24.355Z,99.90
2019-04-06T08:55:19.388Z,99.90
2019-04-06T08:57:16.129Z,99.90
2019-04-06T08:59:13.491Z,99.90
2019-04-06T09:01:07.372Z,99.90
2019-04-06T09:03:02.122Z,99.90
2019-04-06T09:04:56.606Z,99.90
2019-04-06T09:06:53.028Z,99.90
2019-04-06T09:08:47.856Z,99.90
2019-04-06T09:10:42.030Z,99.90
2019-04-06T09:12:38.177Z,99.90
2019-04-06T09:14:32.513Z,99.90
2019-04-06T09:16:27.764Z,99.90
2019-04-06T09:18:22.204Z,99.90
2019-04-06T09:20:17.392Z,99.90
2019-04-06T09:22:12.139Z,99.90
2019-04-06T09:24:06.793Z,99.90
2019-04-06T09:26:01.829Z,99.90
2019-04-06T09:27:59.414Z,99.90
2019-04-06T09:29:56.970Z,99.90
2019-04-06T09:31:51.719Z,99.90
2019-04-06T09:33:46.178Z,99.90
2019-04-06T09:35:41.071Z,99.90
2019-04-06T09:37:35.731Z,99.90
2019-04-06T09:39:30.683Z,99.90
2019-04-06T09:41:26.626Z,99.90
2019-04-06T09:43:20.938Z,99.90
2019-04-06T09:45:27.471Z,99.90
2019-04-06T09:47:41.277Z,99.90
2019-04-06T09:49:59.688Z,99.90
2019-04-06T09:52:04.149Z,99.90
2019-04-06T09:54:11.641Z,99.90
2019-04-06T09:56:19.465Z,99.90
2019-04-06T09:58:22.393Z,99.90
2019-04-06T10:00:38.922Z,99.90
2019-04-06T10:03:04.700Z,99.90
2019-04-06T10:05:16.930Z,99.90
2019-04-06T10:07:24.989Z,99.90
2019-04-06T10:09:27.928Z,99.90
2019-04-06T10:11:51.137Z,99.90
2019-04-06T10:14:03.456Z,99.90
2019-04-06T10:16:14.852Z,99.90
2019-04-06T10:18:43.835Z,99.90
2019-04-06T10:20:55.947Z,99.90
2019-04-06T10:23:17.843Z,99.90
2019-04-06T10:25:23.959Z,99.90
2019-04-06T10:27:40.550Z,99.60
2019-04-06T10:29:52.847Z,99.90
2019-04-06T10:32:05.787Z,99.80
2019-04-06T10:34:08.157Z,99.80
2019-04-06T10:36:24.773Z,99.70
2019-04-06T10:38:45.105Z,98.70
2019-04-06T10:40:53.741Z,98.40
2019-04-06T10:43:26.525Z,98.20
2019-04-06T10:45:27.488Z,98.20
2019-04-06T10:47:30.703Z,98.50
2019-04-06T10:49:48.785Z,98.00
2019-04-06T10:52:01.937Z,97.80
2019-04-06T10:54:11.755Z,98.30
2019-04-06T10:56:23.771Z,98.20
2019-04-06T10:58:40.620Z,97.20
2019-04-06T11:01:00.262Z,97.20
2019-04-06T11:03:05.708Z,97.00
2019-04-06T11:05:28.567Z,96.70
2019-04-06T11:07:36.667Z,96.70
2019-04-06T11:10:00.098Z,96.60
2019-04-06T11:12:05.501Z,96.50
2019-04-06T11:14:28.952Z,96.30
2019-04-06T11:16:42.780Z,96.00
2019-04-06T11:18:55.006Z,96.10
2019-04-06T11:21:07.938Z,96.30
2019-04-06T11:23:30.219Z,96.10
2019-04-06T11:25:38.658Z,96.20
2019-04-06T11:27:55.246Z,96.10
2019-04-06T11:30:15.281Z,96.10
2019-04-06T11:32:18.276Z,95.90
2019-04-06T11:34:40.714Z,95.70
2019-04-06T11:36:40.879Z,95.50
2019-04-06T11:39:12.751Z,95.70
2019-04-06T11:41:23.173Z,95.50
2019-04-06T11:43:43.875Z,95.10
2019-04-06T11:45:47.553Z,94.70
2019-04-06T11:48:01.659Z,94.50
2019-04-06T11:50:20.808Z,94.40
2019-04-06T11:52:40.613Z,94.40
2019-04-06T11:54:59.864Z,94.80
2019-04-06T11:57:18.775Z,94.90
2019-04-06T11:59:30.512Z,94.90
2019-04-06T12:01:43.870Z,94.80
2019-04-06T12:04:12.401Z,94.50
2019-04-06T12:06:14.368Z,94.70
2019-04-06T12:08:37.390Z,93.70
2019-04-06T12:10:44.925Z,93.60
2019-04-06T12:12:58.861Z,93.30
2019-04-06T12:15:01.721Z,93.40
2019-04-06T12:17:12.137Z,93.20
2019-04-06T12:19:15.859Z,93.30
2019-04-06T12:21:29.735Z,93.40
2019-04-06T12:23:43.904Z,93.20
2019-04-06T12:26:09.054Z,93.40
2019-04-06T12:28:40.787Z,93.40
2019-04-06T12:30:56.023Z,93.30
2019-04-06T12:33:01.971Z,93.80
2019-04-06T12:35:18.865Z,93.80
2019-04-06T12:37:21.608Z,94.00
2019-04-06T12:39:26.113Z,94.10
2019-04-06T12:41:39.890Z,93.80
2019-04-06T12:43:46.279Z,93.70
2019-04-06T12:46:02.040Z,93.30
2019-04-06T12:48:25.236Z,92.90
2019-04-06T12:50:41.883Z,92.20
2019-04-06T12:52:55.639Z,92.00
2019-04-06T12:55:15.207Z,91.80
2019-04-06T12:57:21.359Z,91.90
2019-04-06T12:59:39.862Z,92.10
2019-04-06T13:02:00.727Z,92.30
2019-04-06T13:04:20.043Z,92.30
2019-04-06T13:06:48.720Z,91.90
2019-04-06T13:08:53.476Z,92.30
2019-04-06T13:10:59.969Z,91.90
2019-04-06T13:13:16.456Z,91.60
2019-04-06T13:15:26.444Z,91.30
2019-04-06T13:17:39.714Z,90.70
2019-04-06T13:19:41.951Z,90.50
2019-04-06T13:22:02.238Z,90.20
2019-04-06T13:24:21.723Z,90.10
2019-04-06T13:26:50.125Z,90.40
2019-04-06T13:29:06.475Z,90.30
2019-04-06T13:31:18.699Z,89.20
2019-04-06T13:33:38.561Z,89.40
2019-04-06T13:35:47.888Z,88.80
2019-04-06T13:38:14.042Z,88.40
2019-04-06T13:40:41.573Z,88.60
2019-04-06T13:43:00.952Z,87.80
2019-04-06T13:45:14.088Z,88.10
2019-04-06T13:47:38.043Z,88.50
2019-04-06T13:49:54.253Z,89.90
2019-04-06T13:52:10.666Z,90.20
2019-04-06T13:54:27.911Z,90.10
2019-04-06T13:56:53.586Z,90.20
2019-04-06T13:58:56.437Z,90.10
2019-04-06T14:01:16.838Z,90.50
2019-04-06T14:03:33.959Z,90.40
2019-04-06T14:05:58.852Z,90.80
2019-04-06T14:08:21.111Z,90.80
2019-04-06T14:10:29.182Z,90.40
2019-04-06T14:12:38.556Z,90.20
2019-04-06T14:15:01.345Z,90.30
2019-04-06T14:17:09.019Z,90.40
2019-04-06T14:19:23.031Z,90.40
2019-04-06T14:21:36.349Z,90.20
2019-04-06T14:23:43.858Z,90.20
2019-04-06T14:26:00.530Z,90.10
2019-04-06T14:28:08.627Z,90.20
2019-04-06T14:30:33.587Z,90.30
2019-04-06T14:32:56.762Z,90.50
2019-04-06T14:35:01.797Z,90.50
2019-04-06T14:37:14.891Z,90.40
2019-04-06T14:39:31.968Z,90.40
2019-04-06T14:41:44.740Z,90.40
2019-04-06T14:44:05.905Z,90.40
2019-04-06T14:46:08.359Z,90.60
2019-04-06T14:48:21.255Z,90.70
2019-04-06T14:50:33.515Z,90.70
2019-04-06T14:52:35.122Z,90.80
2019-04-06T14:54:35.402Z,90.90
2019-04-06T14:56:40.859Z,90.90
2019-04-06T14:58:42.745Z,90.90
2019-04-06T15:00:51.079Z,91.10
2019-04-06T15:03:04.926Z,91.40
2019-04-06T15:05:17.399Z,91.40
2019-04-06T15:07:29.334Z,91.60
2019-04-06T15:09:30.329Z,91.40
2019-04-06T15:11:35.050Z,91.30
2019-04-06T15:13:55.194Z,91.30
2019-04-06T15:16:02.544Z,90.90
2019-04-06T15:18:19.609Z,91.00
2019-04-06T15:20:28.374Z,90.90
2019-04-06T15:22:42.298Z,90.90
2019-04-06T15:24:48.180Z,90.80
2019-04-06T15:27:19.825Z,90.60
2019-04-06T15:29:32.316Z,90.70
2019-04-06T15:31:48.433Z,90.80
2019-04-06T15:34:08.317Z,90.80
2019-04-06T15:36:27.772Z,90.90
2019-04-06T15:38:41.971Z,91.30
2019-04-06T15:40:43.769Z,91.40
2019-04-06T15:42:44.009Z,91.70
2019-04-06T15:44:57.069Z,91.80
2019-04-06T15:47:09.403Z,92.00
2019-04-06T15:49:19.633Z,92.10
2019-04-06T15:51:35.777Z,92.20
2019-04-06T15:53:56.945Z,92.20
2019-04-06T15:56:04.642Z,92.30
2019-04-06T15:58:14.752Z,92.40
2019-04-06T16:00:31.105Z,92.10
2019-04-06T16:02:38.972Z,92.10
2019-04-06T16:04:56.674Z,92.30
2019-04-06T16:07:15.651Z,92.50
2019-04-06T16:09:27.588Z,92.80
2019-04-06T16:11:40.083Z,92.50
2019-04-06T16:13:48.128Z,92.90
2019-04-06T16:16:09.466Z,93.10
2019-04-06T16:18:35.989Z,93.80
2019-04-06T16:20:49.746Z,93.70
2019-04-06T16:23:10.142Z,94.30
2019-04-06T16:25:16.519Z,94.20
2019-04-06T16:27:19.749Z,94.50
2019-04-06T16:29:39.903Z,94.50
2019-04-06T16:31:51.464Z,94.60
2019-04-06T16:34:00.323Z,95.00
2019-04-06T16:36:17.356Z,95.30
2019-04-06T16:38:34.197Z,95.10
2019-04-06T16:40:35.805Z,94.90
2019-04-06T16:42:55.320Z,95.10
2019-04-06T16:45:01.629Z,95.30
2019-04-06T16:47:14.653Z,95.40
2019-04-06T16:49:21.929Z,95.50
2019-04-06T16:51:36.181Z,95.50
2019-04-06T16:53:49.043Z,95.70
2019-04-06T16:55:52.301Z,95.90
2019-04-06T16:58:06.442Z,96.10
2019-04-06T17:00:20.449Z,96.20
2019-04-06T17:02:24.933Z,96.40
2019-04-06T17:04:30.427Z,96.40
2019-04-06T17:06:38.382Z,96.20
2019-04-06T17:08:58.787Z,96.10
2019-04-06T17:11:02.956Z,96.20
2019-04-06T17:13:12.542Z,96.20
2019-04-06T17:15:31.849Z,96.30
2019-04-06T17:17:49.035Z,96.30
2019-04-06T17:20:00.962Z,96.30
2019-04-06T17:22:22.527Z,96.50
2019-04-06T17:24:24.921Z,96.60
2019-04-06T17:26:27.334Z,96.50
2019-04-06T17:28:52.967Z,96.90
2019-04-06T17:30:59.234Z,96.90
2019-04-06T17:33:12.692Z,97.00
2019-04-06T17:35:42.443Z,97.40
2019-04-06T17:38:05.510Z,97.60
2019-04-06T17:40:07.913Z,97.90
2019-04-06T17:42:12.091Z,98.60
2019-04-06T17:44:17.354Z,98.50
2019-04-06T17:46:29.950Z,98.60
2019-04-06T17:48:49.556Z,98.90
2019-04-06T17:51:02.228Z,99.30
2019-04-06T17:53:05.683Z,99.30
2019-04-06T17:55:22.687Z,99.40
2019-04-06T17:57:36.263Z,99.90
2019-04-06T17:59:54.127Z,99.90
2019-04-06T18:02:01.164Z,99.90
2019-04-06T18:04:09.419Z,99.90
2019-04-06T18:06:28.763Z,99.90
2019-04-06T18:08:33.046Z,99.90
2019-04-06T18:10:46.320Z,99.90
2019-04-06T18:12:46.822Z,99.90
2019-04-06T18:14:41.847Z,99.90
2019-04-06T18:16:37.597Z,99.90
2019-04-06T18:18:32.602Z,99.90
2019-04-06T18:20:27.647Z,99.90
2019-04-06T18:22:21.811Z,99.90
2019-04-06T18:24:16.157Z,99.90
2019-04-06T18:26:10.234Z,99.90
2019-04-06T18:28:05.295Z,99.90
2019-04-06T18:30:00.543Z,99.90
2019-04-06T18:32:17.486Z,99.90
2019-04-06T18:34:13.061Z,99.90
2019-04-06T18:36:07.239Z,99.90
2019-04-06T18:38:21.986Z,99.90
2019-04-06T18:40:23.002Z,99.90
2019-04-06T18:42:17.684Z,99.90
2019-04-06T18:44:12.320Z,99.90
2019-04-06T18:46:07.246Z,99.90
2019-04-06T18:48:02.086Z,99.90
2019-04-06T18:49:57.270Z,99.90
2019-04-06T18:51:52.428Z,99.90
2019-04-06T18:53:47.625Z,99.90
2019-04-06T18:55:42.781Z,99.90
2019-04-06T18:57:38.493Z,99.90
2019-04-06T18:59:34.027Z,99.90
2019-04-06T19:01:28.347Z,99.90
2019-04-06T19:03:26.257Z,99.90
2019-04-06T19:05:24.463Z,99.90
2019-04-06T19:07:21.214Z,99.90
2019-04-06T19:09:23.454Z,99.90
2019-04-06T19:11:12.571Z,99.90
2019-04-06T19:13:07.086Z,99.90
2019-04-06T19:15:01.576Z,99.90
2019-04-06T19:16:56.974Z,99.90
2019-04-06T19:18:52.049Z,99.90
2019-04-06T19:20:46.267Z,99.90
2019-04-06T19:22:41.290Z,99.90
2019-04-06T19:24:36.210Z,99.90
2019-04-06T19:26:31.165Z,99.90
2019-04-06T19:28:26.530Z,99.90
2019-04-06T19:30:21.619Z,99.90
2019-04-06T19:32:15.882Z,99.90
2019-04-06T19:34:10.182Z,99.90
2019-04-06T19:36:05.427Z,99.90
2019-04-06T19:38:00.532Z,99.90
2019-04-06T19:39:55.035Z,99.90
2019-04-06T19:41:50.465Z,99.90
2019-04-06T19:43:45.908Z,99.90
2019-04-06T19:45:40.935Z,99.90
2019-04-06T19:47:35.862Z,99.90
2019-04-06T19:49:30.662Z,99.90
2019-04-06T19:51:25.146Z,99.90
2019-04-06T19:53:20.175Z,99.90
2019-04-06T19:55:14.779Z,99.90
2019-04-06T19:57:08.656Z,99.90
2019-04-06T19:59:02.976Z,99.90
2019-04-06T20:00:59.022Z,99.90
2019-04-06T20:02:54.126Z,99.90
2019-04-06T20:04:48.975Z,99.90
2019-04-06T20:06:43.158Z,99.90
2019-04-06T20:08:37.340Z,99.90
2019-04-06T20:10:32.269Z,99.90
2019-04-06T20:12:27.369Z,99.90
2019-04-06T20:14:22.231Z,99.90
2019-04-06T20:16:17.488Z,99.90
2019-04-06T20:18:13.090Z,99.90
2019-04-06T20:20:09.102Z,99.90
2019-04-06T20:22:04.339Z,99.90
2019-04-06T20:23:58.897Z,99.90
2019-04-06T20:25:53.814Z,99.90
2019-04-06T20:27:48.917Z,99.90
2019-04-06T20:29:44.290Z,99.90
2019-04-06T20:31:39.566Z,99.90
2019-04-06T20:33:46.400Z,99.90
2019-04-06T20:35:31.598Z,99.90
2019-04-06T20:37:26.343Z,99.90
2019-04-06T20:39:21.095Z,99.90
2019-04-06T20:41:15.378Z,99.90
2019-04-06T20:43:10.892Z,99.90
2019-04-06T20:45:06.183Z,99.90
2019-04-06T20:47:01.652Z,99.90
2019-04-06T20:48:56.557Z,99.90
2019-04-06T20:50:51.516Z,99.90
2019-04-06T20:52:46.471Z,99.90
2019-04-06T20:54:41.657Z,99.90
2019-04-06T20:56:36.209Z,99.90
2019-04-06T20:58:31.363Z,99.90
2019-04-06T21:00:25.902Z,99.90
2019-04-06T21:02:20.436Z,99.90
2019-04-06T21:04:14.633Z,99.90
2019-04-06T21:06:10.301Z,99.90
2019-04-06T21:08:05.930Z,99.90
2019-04-06T21:10:00.629Z,99.90
2019-04-06T21:11:54.734Z,99.90
2019-04-06T21:13:48.759Z,99.90
2019-04-06T21:15:43.614Z,99.90
2019-04-06T21:17:38.965Z,99.90
2019-04-06T21:19:34.016Z,99.90
2019-04-06T21:21:28.512Z,99.90
2019-04-06T21:23:24.597Z,99.90
2019-04-06T21:25:19.087Z,99.90
2019-04-06T21:27:15.101Z,99.90
2019-04-06T21:29:09.767Z,99.90
2019-04-06T21:31:05.034Z,99.90
2019-04-06T21:32:59.969Z,99.90
2019-04-06T21:34:56.115Z,99.90
2019-04-06T21:36:51.152Z,99.90
2019-04-06T21:38:46.021Z,99.90
2019-04-06T21:40:41.097Z,99.90
2019-04-06T21:42:36.592Z,99.90
2019-04-06T21:44:32.074Z,99.90
2019-04-06T21:46:26.491Z,99.90
2019-04-06T21:48:21.314Z,99.90
2019-04-06T21:50:16.097Z,99.90
2019-04-06T21:52:11.333Z,99.90
2019-04-06T21:54:06.725Z,99.90
2019-04-06T21:56:05.902Z,99.90
2019-04-06T21:57:57.455Z,99.90
2019-04-06T21:59:53.905Z,99.90
2019-04-06T22:01:48.258Z,99.90
2019-04-06T22:03:42.973Z,99.90
2019-04-06T22:05:41.089Z,99.90
2019-04-06T22:07:47.093Z,99.90
2019-04-06T22:09:32.325Z,99.90
2019-04-06T22:11:27.677Z,99.90
2019-04-06T22:13:22.341Z,99.90
2019-04-06T22:15:16.948Z,99.90
2019-04-06T22:17:12.074Z,99.90
2019-04-06T22:19:07.845Z,99.90
2019-04-06T22:21:02.241Z,99.90
2019-04-06T22:22:57.269Z,99.90
2019-04-06T22:24:51.882Z,99.90
2019-04-06T22:26:46.071Z,99.90
2019-04-06T22:28:41.359Z,99.90
2019-04-06T22:30:36.622Z,99.90
2019-04-06T22:32:32.241Z,99.90
2019-04-06T22:34:36.674Z,99.90
2019-04-06T22:36:22.317Z,99.90
2019-04-06T22:38:17.086Z,99.90
2019-04-06T22:40:12.202Z,99.90
2019-04-06T22:42:06.428Z,99.90
2019-04-06T22:44:01.857Z,99.90
2019-04-06T22:45:56.441Z,99.90
2019-04-06T22:47:50.855Z,99.90
2019-04-06T22:49:46.642Z,99.90
2019-04-06T22:51:42.206Z,99.90
2019-04-06T22:53:37.225Z,99.90
2019-04-06T22:55:33.613Z,99.90
2019-04-06T22:57:28.387Z,99.90
2019-04-06T22:59:22.583Z,99.90
2019-04-06T23:01:17.419Z,99.90
2019-04-06T23:03:24.196Z,99.90
2019-04-06T23:05:24.807Z,99.90
2019-04-06T23:07:21.061Z,99.90
2019-04-06T23:09:16.588Z,99.90
2019-04-06T23:11:11.669Z,99.90
2019-04-06T23:13:06.599Z,99.90
2019-04-06T23:15:01.757Z,99.90
2019-04-06T23:16:57.056Z,99.90
2019-04-06T23:18:52.026Z,99.90
2019-04-06T23:20:47.324Z,99.90
2019-04-06T23:22:42.826Z,99.90
2019-04-06T23:24:38.613Z,99.90
2019-04-06T23:26:34.434Z,99.90
2019-04-06T23:28:28.506Z,99.90
2019-04-06T23:30:23.704Z,99.90
2019-04-06T23:32:18.720Z,99.90
2019-04-06T23:34:13.520Z,99.90
2019-04-06T23:36:08.898Z,99.90
2019-04-06T23:38:04.139Z,99.90
2019-04-06T23:39:59.125Z,99.90
2019-04-06T23:41:54.134Z,99.90
2019-04-06T23:43:48.498Z,99.90
2019-04-06T23:45:43.266Z,99.90
2019-04-06T23:47:38.729Z,99.90
2019-04-06T23:49:32.790Z,99.90
2019-04-06T23:51:27.379Z,99.90
2019-04-06T23:53:21.528Z,99.90
2019-04-06T23:55:16.635Z,99.90
2019-04-06T23:57:11.082Z,99.90
2019-04-06T23:59:06.107Z,99.90
